Time;durP1;ratioP1;P1;durP2;ratioP2;P2;SDS_P1;SDS_P2;PMS_P1;PMS_P2;Temp;Humidity;BMP_temperature;BMP_pressure;BME280_temperature;BME280_humidity;BME280_pressure;Samples;Min_cycle;Max_cycle;Signal;HPM_P1;HPM_P2
2021/05/13 00:02:49;;;;;;;0.80;0.43;;;16.70;99.90;;;;;;20778039;28;20712;-68
2021/05/13 00:12:56;;;;;;;0.20;0.00;;;16.60;99.90;;;;;;20777868;28;20198;-69
2021/05/13 00:23:00;;;;;;;0.20;0.10;;;16.60;99.90;;;;;;20777228;28;20706;-68
2021/05/13 00:33:03;;;;;;;0.50;0.50;;;16.30;99.90;;;;;;20774462;28;20652;-69
2021/05/13 00:43:07;;;;;;;1.03;0.50;;;15.90;99.90;;;;;;20776352;28;20248;-68
2021/05/13 00:53:11;;;;;;;0.20;0.00;;;15.40;99.90;;;;;;20774484;28;20328;-69
2021/05/13 01:03:15;;;;;;;0.20;0.13;;;15.40;99.90;;;;;;20774576;28;20226;-69
2021/05/13 01:13:21;;;;;;;0.20;0.10;;;14.90;99.90;;;;;;20775448;28;20301;-68
2021/05/13 01:23:25;;;;;;;0.20;0.00;;;15.20;99.90;;;;;;20772889;28;20749;-68
2021/05/13 01:33:28;;;;;;;2.10;0.50;;;15.40;99.90;;;;;;20769831;28;20383;-68
2021/05/13 01:43:33;;;;;;;0.20;0.10;;;16.30;99.90;;;;;;20772523;28;20222;-69
2021/05/13 01:53:36;;;;;;;9.47;0.57;;;16.50;99.90;;;;;;20772232;28;20198;-69
2021/05/13 02:03:40;;;;;;;0.60;0.30;;;16.60;99.90;;;;;;20771169;28;20703;-71
2021/05/13 02:13:43;;;;;;;0.77;0.43;;;16.30;99.90;;;;;;20773047;28;20241;-68
2021/05/13 02:23:48;;;;;;;4.17;0.40;;;16.00;99.90;;;;;;20770810;28;20218;-67
2021/05/13 02:33:51;;;;;;;0.20;0.10;;;16.00;99.90;;;;;;20769014;28;20281;-68
2021/05/13 02:43:55;;;;;;;0.30;0.30;;;15.80;99.90;;;;;;20770059;28;20566;-67
2021/05/13 02:53:58;;;;;;;0.20;0.10;;;15.80;99.90;;;;;;20784298;28;20225;-67
2021/05/13 03:04:02;;;;;;;0.77;0.73;;;15.50;99.90;;;;;;20781859;28;20226;-68
2021/05/13 03:14:06;;;;;;;0.20;0.00;;;15.40;99.90;;;;;;20784120;28;20585;-68
2021/05/13 03:24:14;;;;;;;2.77;1.00;;;15.00;99.90;;;;;;20781177;28;20750;-69
2021/05/13 03:34:17;;;;;;;2.00;0.50;;;14.70;99.90;;;;;;20779225;28;20562;-69
2021/05/13 03:44:21;;;;;;;0.20;0.10;;;14.80;99.90;;;;;;20779729;28;20233;-67
2021/05/13 03:54:24;;;;;;;0.20;0.00;;;14.80;99.90;;;;;;20780063;28;20693;-69
2021/05/13 04:04:28;;;;;;;0.20;0.00;;;14.90;99.90;;;;;;20775143;28;20740;-70
2021/05/13 04:14:31;;;;;;;0.20;0.10;;;14.40;99.90;;;;;;20779008;28;20202;-70
2021/05/13 04:24:35;;;;;;;0.20;0.10;;;13.70;99.90;;;;;;20774531;28;20710;-70
2021/05/13 04:34:38;;;;;;;0.20;0.10;;;13.10;99.90;;;;;;20776545;28;20198;-69
2021/05/13 04:44:42;;;;;;;0.20;0.10;;;13.10;99.90;;;;;;20776322;28;20233;-69
2021/05/13 04:54:49;;;;;;;0.20;0.10;;;13.30;99.90;;;;;;20773499;28;20210;-68
2021/05/13 05:04:53;;;;;;;0.20;0.10;;;13.30;99.90;;;;;;20773212;28;20660;-68
2021/05/13 05:14:57;;;;;;;0.30;0.30;;;13.30;99.90;;;;;;20774258;28;20225;-68
2021/05/13 05:25:01;;;;;;;23.03;0.57;;;13.70;99.90;;;;;;20771769;28;20214;-68
2021/05/13 05:35:06;;;;;;;1.07;0.63;;;14.10;99.90;;;;;;20772360;28;20586;-68
2021/05/13 05:45:11;;;;;;;0.20;0.10;;;14.40;99.90;;;;;;20769811;28;20335;-67
2021/05/13 05:55:14;;;;;;;0.20;0.10;;;14.60;99.90;;;;;;20771711;28;20206;-67
2021/05/13 06:05:19;;;;;;;0.20;0.20;;;14.80;99.90;;;;;;20765612;28;20551;-72
2021/05/13 06:15:24;;;;;;;0.20;0.10;;;15.10;99.90;;;;;;20769822;28;20329;-68
2021/05/13 06:25:29;;;;;;;0.30;0.30;;;15.50;99.90;;;;;;20781326;28;20203;-68
2021/05/13 06:35:34;;;;;;;0.23;0.20;;;15.40;99.90;;;;;;20781290;28;20206;-68
2021/05/13 06:45:38;;;;;;;0.20;0.10;;;15.90;99.90;;;;;;20783497;28;20200;-68
2021/05/13 06:55:41;;;;;;;0.20;0.10;;;16.10;99.90;;;;;;20782199;28;20210;-67
2021/05/13 07:05:45;;;;;;;0.23;0.23;;;16.20;99.90;;;;;;20780561;28;20280;-69
2021/05/13 07:15:49;;;;;;;0.40;0.10;;;16.50;99.90;;;;;;20775622;28;20302;-69
2021/05/13 07:25:55;;;;;;;2.83;0.83;;;16.80;99.90;;;;;;20779132;28;20298;-68
2021/05/13 07:35:58;;;;;;;0.30;0.30;;;16.80;99.90;;;;;;20805176;28;20673;-68
2021/05/13 07:46:02;;;;;;;0.20;0.17;;;17.30;99.90;;;;;;20835396;28;20230;-69
2021/05/13 07:56:06;;;;;;;0.80;0.77;;;17.20;99.90;;;;;;20776352;28;20237;-69
2021/05/13 08:06:11;;;;;;;2.57;0.77;;;17.80;99.90;;;;;;20770121;28;20659;-67
2021/05/13 08:16:14;;;;;;;2.00;0.70;;;17.90;99.90;;;;;;20740543;28;20830;-66
2021/05/13 08:26:18;;;;;;;0.20;0.20;;;18.10;99.90;;;;;;20774073;28;20198;-67
2021/05/13 08:36:21;;;;;;;0.53;0.20;;;18.60;99.90;;;;;;20770747;28;20227;-62
2021/05/13 08:46:25;;;;;;;1.17;0.43;;;18.60;99.90;;;;;;20772275;28;20595;-66
2021/05/13 08:56:29;;;;;;;0.20;0.20;;;19.30;99.90;;;;;;20769896;28;20213;-67
2021/05/13 09:06:36;;;;;;;0.20;0.10;;;19.30;99.90;;;;;;20768978;28;20862;-66
2021/05/13 09:16:39;;;;;;;0.20;0.10;;;18.50;99.90;;;;;;20768087;28;20248;-67
2021/05/13 09:26:43;;;;;;;1.00;0.50;;;18.30;99.90;;;;;;20769621;28;20608;-67
2021/05/13 09:36:47;;;;;;;1.40;1.30;;;18.70;99.90;;;;;;20766723;28;20580;-68
2021/05/13 09:46:52;;;;;;;0.30;0.30;;;18.80;99.90;;;;;;20766332;28;20194;-71
2021/05/13 09:56:59;;;;;;;0.93;0.77;;;19.30;99.90;;;;;;20772084;28;20682;-67
2021/05/13 10:07:03;;;;;;;1.13;0.40;;;19.70;99.90;;;;;;20806591;28;20241;-66
2021/05/13 10:17:07;;;;;;;2.33;0.60;;;19.90;99.90;;;;;;20783557;28;20456;-67
2021/05/13 10:27:19;;;;;;;0.20;0.13;;;19.70;99.90;;;;;;20780870;28;20619;-66
2021/05/13 10:37:30;;;;;;;1.30;0.67;;;19.80;99.90;;;;;;20778080;28;20725;-66
2021/05/13 10:47:34;;;;;;;0.30;0.30;;;20.20;99.90;;;;;;20780449;28;20202;-67
2021/05/13 10:57:51;;;;;;;0.30;0.20;;;20.40;99.90;;;;;;20777253;28;20559;-68
2021/05/13 11:07:56;;;;;;;0.27;0.27;;;21.50;99.90;;;;;;20775750;28;20241;-69
2021/05/13 11:18:09;;;;;;;1.33;0.40;;;21.40;99.90;;;;;;20780346;28;20352;-68
2021/05/13 11:28:26;;;;;;;0.20;0.00;;;22.20;99.90;;;;;;20779501;28;20679;-66
2021/05/13 11:38:30;;;;;;;1.43;0.30;;;22.00;99.90;;;;;;20779070;28;20387;-67
2021/05/13 11:48:37;;;;;;;1.00;0.43;;;21.20;99.90;;;;;;20778021;28;20301;-67
2021/05/13 11:58:43;;;;;;;0.60;0.60;;;21.20;99.90;;;;;;20773992;28;20221;-68
2021/05/13 12:08:46;;;;;;;0.63;0.20;;;21.30;99.90;;;;;;20776338;28;20229;-66
2021/05/13 12:18:52;;;;;;;1.47;0.60;;;22.00;99.90;;;;;;20778840;28;20225;-67
2021/05/13 12:28:56;;;;;;;0.20;0.15;;;22.80;99.90;;;;;;20774457;28;20225;-67
2021/05/13 12:39:00;;;;;;;6.43;0.40;;;23.00;99.90;;;;;;20773627;28;20357;-67
2021/05/13 12:49:04;;;;;;;0.28;0.17;;;23.60;99.90;;;;;;20770532;28;20474;-67
2021/05/13 12:59:09;;;;;;;4.23;0.33;;;23.10;99.90;;;;;;20773233;28;20229;-66
2021/05/13 13:09:29;;;;;;;0.20;0.20;;;23.60;99.90;;;;;;20769460;28;20230;-64
2021/05/13 13:19:33;;;;;;;2.15;0.32;;;24.20;99.90;;;;;;20766240;28;20250;-67
2021/05/13 13:29:40;;;;;;;0.43;0.35;;;24.00;99.90;;;;;;20766648;28;20524;-66
2021/05/13 13:39:43;;;;;;;0.60;0.60;;;24.60;99.90;;;;;;20764960;28;20217;-67
2021/05/13 13:49:47;;;;;;;0.50;0.38;;;26.10;99.90;;;;;;20769370;28;20785;-68
2021/05/13 13:59:50;;;;;;;1.40;0.65;;;26.90;99.90;;;;;;20767064;28;20329;-68
2021/05/13 14:09:55;;;;;;;0.28;0.22;;;27.20;99.90;;;;;;20784509;28;20265;-68
2021/05/13 14:19:58;;;;;;;0.50;0.50;;;28.00;99.90;;;;;;20764016;28;20218;-66
2021/05/13 14:30:02;;;;;;;2.40;0.63;;;28.20;99.90;;;;;;20767834;28;20353;-68
2021/05/13 14:40:06;;;;;;;6.22;0.88;;;27.20;99.90;;;;;;20767101;28;20585;-67
2021/05/13 14:50:13;;;;;;;0.55;0.45;;;23.40;99.90;;;;;;20706610;28;20362;-70
2021/05/13 15:00:19;;;;;;;0.27;0.17;;;25.50;99.90;;;;;;20766557;28;20230;-67
2021/05/13 15:10:23;;;;;;;0.80;0.47;;;22.00;99.90;;;;;;20697387;28;20207;-67
2021/05/13 15:20:27;;;;;;;0.50;0.50;;;23.40;99.90;;;;;;20758875;28;20225;-67
2021/05/13 15:30:31;;;;;;;0.20;0.20;;;23.50;99.90;;;;;;20777989;28;20190;-70
2021/05/13 15:40:35;;;;;;;0.57;0.57;;;27.00;99.90;;;;;;20776467;28;20483;-68
2021/05/13 15:50:39;;;;;;;15.20;1.23;;;25.50;99.90;;;;;;20776436;28;20640;-70
2021/05/13 16:00:42;;;;;;;3.00;1.13;;;22.10;99.90;;;;;;20777981;28;20390;-68
2021/05/13 16:10:54;;;;;;;1.85;0.52;;;23.60;99.90;;;;;;20775362;28;20202;-66
2021/05/13 16:20:57;;;;;;;0.20;0.10;;;23.30;99.90;;;;;;20771036;28;20236;-68
2021/05/13 16:31:01;;;;;;;4.80;1.03;;;22.80;99.90;;;;;;20771597;28;20662;-69
2021/05/13 16:41:04;;;;;;;0.20;0.20;;;22.50;99.90;;;;;;20774834;28;20587;-70
2021/05/13 16:51:09;;;;;;;0.60;0.30;;;21.30;99.90;;;;;;20771277;28;20643;-67
2021/05/13 17:01:12;;;;;;;1.43;0.30;;;22.50;99.90;;;;;;20773813;28;20238;-69
2021/05/13 17:11:16;;;;;;;6.10;0.93;;;22.40;99.90;;;;;;20771502;28;20236;-70
2021/05/13 17:21:20;;;;;;;1.65;1.05;;;23.50;99.90;;;;;;20772722;28;20225;-69
2021/05/13 17:31:24;;;;;;;1.90;0.97;;;23.60;99.90;;;;;;20766029;28;20526;-71
2021/05/13 17:41:32;;;;;;;0.60;0.60;;;22.60;99.90;;;;;;20768133;28;20712;-71
2021/05/13 17:51:36;;;;;;;0.83;0.20;;;22.70;99.90;;;;;;20768032;28;21173;-72
2021/05/13 18:01:39;;;;;;;0.20;0.20;;;20.80;99.90;;;;;;20770692;28;20315;-75
2021/05/13 18:11:43;;;;;;;3.33;0.83;;;19.50;99.90;;;;;;20770374;28;20571;-75
2021/05/13 18:21:47;;;;;;;0.20;0.20;;;19.80;99.90;;;;;;20777719;28;20218;-77
2021/05/13 18:31:53;;;;;;;2.50;0.40;;;20.00;99.90;;;;;;20785447;28;20239;-75
2021/05/13 18:42:04;;;;;;;0.20;0.20;;;20.00;99.90;;;;;;20782155;28;20555;-75
2021/05/13 18:52:08;;;;;;;1.30;0.30;;;20.40;99.90;;;;;;20783823;28;20225;-74
2021/05/13 19:02:12;;;;;;;0.27;0.27;;;20.20;99.90;;;;;;20780034;28;20725;-74
2021/05/13 19:12:16;;;;;;;0.50;0.30;;;20.20;99.90;;;;;;20785760;28;20510;-75
2021/05/13 19:22:20;;;;;;;0.63;0.30;;;20.10;99.90;;;;;;20782140;28;20266;-74
2021/05/13 19:42:49;;;;;;;5.10;0.63;;;19.80;99.90;;;;;;20775602;28;20690;-74
2021/05/13 19:53:01;;;;;;;0.20;0.20;;;19.60;99.90;;;;;;20778757;28;20199;-74
2021/05/13 20:03:13;;;;;;;3.00;0.30;;;19.40;99.90;;;;;;20774684;28;20321;-72
2021/05/13 20:13:17;;;;;;;0.20;0.10;;;19.30;99.90;;;;;;20774514;28;20202;-71
2021/05/13 20:23:20;;;;;;;0.77;0.53;;;19.10;99.90;;;;;;20774826;28;20723;-73
2021/05/13 20:33:25;;;;;;;0.60;0.30;;;19.10;99.90;;;;;;20771099;28;20198;-74
2021/05/13 20:43:28;;;;;;;0.20;0.10;;;18.90;99.90;;;;;;20799414;28;20325;-75
2021/05/13 21:03:54;;;;;;;1.17;0.50;;;18.60;99.90;;;;;;20772077;28;20230;-77
2021/05/13 21:24:51;;;;;;;0.20;0.10;;;18.50;99.90;;;;;;20761210;28;20271;-72
2021/05/13 21:34:55;;;;;;;0.20;0.20;;;18.50;99.90;;;;;;20767845;28;20671;-72
2021/05/13 21:44:58;;;;;;;0.23;0.10;;;18.50;99.90;;;;;;20770252;28;20679;-73
2021/05/13 21:55:03;;;;;;;0.20;0.20;;;18.50;99.90;;;;;;20779254;28;20218;-72
2021/05/13 22:05:08;;;;;;;0.20;0.20;;;18.50;99.90;;;;;;20786213;28;20237;-72
2021/05/13 22:15:15;;;;;;;1.53;0.40;;;18.50;99.90;;;;;;20783398;28;20193;-73
2021/05/13 22:25:22;;;;;;;0.20;0.20;;;18.30;99.90;;;;;;20782518;28;20760;-73
2021/05/13 22:35:26;;;;;;;0.30;0.13;;;18.30;99.90;;;;;;20784265;28;20198;-72
2021/05/13 22:45:30;;;;;;;0.70;0.40;;;18.00;99.90;;;;;;20779611;28;20222;-75
2021/05/13 22:55:37;;;;;;;0.30;0.20;;;18.00;99.90;;;;;;20783456;28;20186;-73
2021/05/13 23:05:40;;;;;;;0.57;0.23;;;17.20;99.90;;;;;;20781051;28;20229;-71
2021/05/13 23:15:45;;;;;;;0.20;0.10;;;16.50;99.90;;;;;;20779950;28;20603;-72
2021/05/13 23:25:48;;;;;;;0.20;0.10;;;16.50;99.90;;;;;;20779702;28;20816;-71
2021/05/13 23:35:52;;;;;;;0.20;0.10;;;16.60;99.90;;;;;;20781995;28;20565;-72
2021/05/13 23:45:55;;;;;;;0.67;0.47;;;16.70;99.90;;;;;;20780037;28;20236;-72
2021/05/13 23:55:59;;;;;;;3.20;0.60;;;16.80;99.90;;;;;;20778944;28;20547;-72
